Time;durP1;ratioP1;P1;durP2;ratioP2;P2;SDS_P1;SDS_P2;PMS_P1;PMS_P2;Temp;Humidity;BMP_temperature;BMP_pressure;BME280_temperature;BME280_humidity;BME280_pressure;Samples;Min_cycle;Max_cycle;Signal;HPM_P1;HPM_P2
2021/05/23 00:01:04;;;;;;;1.23;0.50;;;;;;;17.92;51.11;98198.47;5072198;28;20025;-64
2021/05/23 00:03:30;;;;;;;1.48;1.13;;;;;;;17.97;51.16;98190.91;5072356;28;20490;-64
2021/05/23 00:05:56;;;;;;;1.35;0.60;;;;;;;18.04;51.24;98187.75;5072109;28;20060;-64
2021/05/23 00:08:22;;;;;;;0.20;0.20;;;;;;;18.10;51.14;98185.75;5066580;28;20080;-64
2021/05/23 00:10:57;;;;;;;0.30;0.30;;;;;;;18.13;50.93;98197.06;5070830;28;20506;-64
2021/05/23 00:13:40;;;;;;;0.30;0.30;;;;;;;18.12;51.05;98195.41;5070680;28;20107;-65
2021/05/23 00:16:10;;;;;;;0.57;0.57;;;;;;;18.10;51.15;98236.56;5072396;28;20108;-64
2021/05/23 00:18:39;;;;;;;0.25;0.25;;;;;;;18.12;51.04;98267.63;5072069;28;20036;-64
2021/05/23 00:21:06;;;;;;;1.05;1.05;;;;;;;18.12;51.17;98289.88;5072808;28;20033;-64
2021/05/23 00:23:32;;;;;;;0.47;0.47;;;;;;;18.12;51.27;98287.09;5074111;28;20040;-64
2021/05/23 00:25:59;;;;;;;5.28;0.60;;;;;;;18.12;51.44;98300.16;5074482;28;20399;-64
2021/05/23 00:28:25;;;;;;;0.77;0.77;;;;;;;18.11;51.26;98304.91;5076196;28;20032;-64
2021/05/23 00:30:51;;;;;;;1.45;0.43;;;;;;;18.11;51.54;98304.91;5075756;28;20036;-65
2021/05/23 00:33:17;;;;;;;0.25;0.25;;;;;;;18.10;51.58;98317.13;5075300;28;20031;-64
2021/05/23 00:35:43;;;;;;;0.10;0.10;;;;;;;18.07;51.75;98305.78;5076069;28;20032;-65
2021/05/23 00:38:10;;;;;;;0.25;0.25;;;;;;;18.05;51.71;98289.44;5075551;28;20393;-65
2021/05/23 00:40:37;;;;;;;0.22;0.22;;;;;;;18.07;51.98;98278.03;5075391;28;20040;-65
2021/05/23 00:43:06;;;;;;;0.30;0.30;;;;;;;18.08;51.97;98280.50;5075953;28;20032;-66
2021/05/23 00:45:33;;;;;;;0.30;0.30;;;;;;;18.10;51.75;98288.53;5074194;28;20049;-66
2021/05/23 00:47:58;;;;;;;0.20;0.20;;;;;;;18.10;51.78;98319.91;5075178;28;20029;-66
2021/05/23 00:50:26;;;;;;;0.50;0.50;;;;;;;18.06;52.01;98318.84;5075235;28;20035;-66
2021/05/23 00:52:56;;;;;;;0.32;0.32;;;;;;;18.04;52.23;98310.00;5075704;28;20028;-65
2021/05/23 00:55:22;;;;;;;0.63;0.30;;;;;;;18.06;52.26;98313.28;5075037;28;20111;-66
2021/05/23 00:57:49;;;;;;;0.30;0.30;;;;;;;18.11;52.22;98292.94;5075241;28;20393;-65
2021/05/23 01:00:45;;;;;;;0.20;0.20;;;;;;;18.16;52.30;98284.56;5075103;28;20111;-64
2021/05/23 01:03:39;;;;;;;0.30;0.30;;;;;;;18.13;52.24;98274.84;4993751;28;20058;-63
2021/05/23 01:06:08;;;;;;;0.20;0.20;;;;;;;18.11;52.30;98254.91;4993715;28;20053;-64
2021/05/23 01:08:36;;;;;;;0.80;0.60;;;;;;;18.13;52.33;98244.28;4993271;28;20050;-64
2021/05/23 01:11:28;;;;;;;0.90;0.20;;;;;;;18.12;52.42;98222.38;4994121;28;20553;-63
2021/05/23 01:13:57;;;;;;;0.65;0.63;;;;;;;18.10;52.50;98219.91;4976804;28;20046;-64
2021/05/23 01:16:46;;;;;;;0.32;0.28;;;;;;;18.11;52.45;98231.81;4993410;28;20041;-64
2021/05/23 01:19:34;;;;;;;0.17;0.17;;;;;;;18.06;52.43;98235.50;4993642;28;20121;-65
2021/05/23 01:22:11;;;;;;;0.22;0.22;;;;;;;18.01;52.52;98255.03;4993691;28;20038;-64
2021/05/23 01:24:43;;;;;;;0.17;0.17;;;;;;;17.92;52.70;98262.34;4993647;28;20042;-65
2021/05/23 01:27:12;;;;;;;0.25;0.25;;;;;;;17.89;52.73;98246.25;4993313;28;20049;-65
2021/05/23 01:29:39;;;;;;;0.20;0.20;;;;;;;17.85;52.73;98255.16;4993248;28;20072;-64
2021/05/23 01:32:07;;;;;;;0.22;0.22;;;;;;;17.82;52.82;98257.72;4992657;28;20137;-65
2021/05/23 01:34:34;;;;;;;0.20;0.20;;;;;;;17.80;52.82;98248.84;4993319;28;20038;-65
2021/05/23 01:37:06;;;;;;;0.35;0.35;;;;;;;17.85;52.89;98268.25;4993407;28;20110;-65
2021/05/23 01:39:32;;;;;;;0.28;0.28;;;;;;;17.96;52.42;98285.63;5015395;28;20470;-65
2021/05/23 01:41:59;;;;;;;0.10;0.10;;;;;;;18.08;52.44;98299.09;5073980;28;20077;-65
2021/05/23 01:44:26;;;;;;;0.30;0.30;;;;;;;18.15;52.05;98324.56;5074558;28;20111;-65
2021/05/23 01:46:52;;;;;;;0.10;0.10;;;;;;;18.24;52.16;98319.19;5074042;28;20448;-65
2021/05/23 01:49:18;;;;;;;0.47;0.47;;;;;;;18.31;51.86;98336.31;5074049;28;20036;-66
2021/05/23 01:51:44;;;;;;;0.20;0.20;;;;;;;18.39;51.76;98332.91;5074652;28;20044;-66
2021/05/23 01:54:10;;;;;;;0.30;0.30;;;;;;;18.42;51.96;98334.22;5074087;28;20028;-66
2021/05/23 01:56:37;;;;;;;0.10;0.10;;;;;;;18.46;51.80;98340.84;5072537;28;20035;-64
2021/05/23 01:59:03;;;;;;;0.10;0.10;;;;;;;18.51;51.84;98341.63;5073789;28;20077;-65
2021/05/23 02:01:29;;;;;;;0.20;0.20;;;;;;;18.56;51.63;98332.38;5074299;28;20210;-65
2021/05/23 02:04:00;;;;;;;0.25;0.25;;;;;;;18.54;51.88;98312.41;5072794;28;20360;-68
2021/05/23 02:06:26;;;;;;;0.20;0.20;;;;;;;18.51;51.86;98296.31;5073796;28;20044;-66
2021/05/23 02:08:52;;;;;;;0.20;0.20;;;;;;;18.42;52.05;98276.72;5074157;28;20433;-64
2021/05/23 02:11:18;;;;;;;0.28;0.22;;;;;;;18.30;52.37;98291.03;5073494;28;20048;-65
2021/05/23 02:13:44;;;;;;;0.30;0.30;;;;;;;18.26;52.48;98322.50;5073571;28;20035;-65
2021/05/23 02:16:10;;;;;;;0.13;0.13;;;;;;;18.19;52.43;98345.91;5074279;28;20024;-66
2021/05/23 02:18:37;;;;;;;0.52;0.17;;;;;;;18.15;52.67;98349.56;5055529;28;20032;-64
2021/05/23 02:21:05;;;;;;;0.50;0.50;;;;;;;18.18;52.63;98365.66;5073380;28;20040;-65
2021/05/23 02:23:31;;;;;;;1.70;0.68;;;;;;;18.28;52.61;98384.16;5073486;28;20036;-64
2021/05/23 02:25:57;;;;;;;0.38;0.38;;;;;;;18.33;52.37;98373.81;5073863;28;20032;-65
2021/05/23 02:28:23;;;;;;;0.47;0.45;;;;;;;18.36;52.44;98373.22;5073844;28;20032;-64
2021/05/23 02:30:54;;;;;;;0.20;0.20;;;;;;;18.34;52.32;98396.88;5073363;28;20028;-65
2021/05/23 02:33:24;;;;;;;1.00;1.00;;;;;;;18.21;52.79;98399.25;5073941;28;20051;-63
2021/05/23 02:35:55;;;;;;;0.50;0.50;;;;;;;18.14;52.74;98407.09;5075107;28;20044;-64
2021/05/23 02:38:21;;;;;;;0.20;0.20;;;;;;;18.11;52.92;98409.63;5073575;28;20085;-64
2021/05/23 02:40:48;;;;;;;0.43;0.43;;;;;;;17.97;53.11;98415.06;5073247;28;20119;-64
2021/05/23 02:43:15;;;;;;;0.13;0.13;;;;;;;17.89;53.22;98424.84;5072505;28;20025;-64
2021/05/23 02:45:42;;;;;;;0.20;0.20;;;;;;;17.81;53.49;98420.72;5072907;28;20032;-64
2021/05/23 02:48:09;;;;;;;0.60;0.40;;;;;;;17.73;53.51;98404.72;5072812;28;20028;-64
2021/05/23 02:50:37;;;;;;;0.17;0.17;;;;;;;17.65;53.77;98400.63;5073025;28;20036;-65
2021/05/23 02:53:08;;;;;;;0.20;0.20;;;;;;;17.54;53.83;98415.72;5073492;28;20028;-64
2021/05/23 02:55:38;;;;;;;0.75;0.35;;;;;;;17.47;54.08;98435.44;5072887;28;20036;-65
2021/05/23 02:58:08;;;;;;;0.40;0.40;;;;;;;17.54;54.11;98445.41;5073055;28;20035;-65
2021/05/23 03:00:34;;;;;;;0.30;0.25;;;;;;;17.66;53.75;98466.13;5073287;28;20032;-64
2021/05/23 03:03:01;;;;;;;0.17;0.17;;;;;;;17.81;53.23;98465.16;5072631;28;20025;-65
2021/05/23 03:05:26;;;;;;;0.20;0.20;;;;;;;18.07;53.00;98497.50;5054729;28;20043;-65
2021/05/23 03:07:56;;;;;;;0.10;0.10;;;;;;;18.28;52.62;98498.13;5072388;28;20417;-63
2021/05/23 03:10:31;;;;;;;0.22;0.22;;;;;;;18.39;52.42;98483.00;5072751;28;20397;-65
2021/05/23 03:12:57;;;;;;;0.35;0.35;;;;;;;18.42;52.37;98485.19;5072869;28;20032;-65
2021/05/23 03:15:25;;;;;;;0.90;0.20;;;;;;;18.42;52.63;98485.19;5072847;28;20063;-64
2021/05/23 03:17:51;;;;;;;0.30;0.30;;;;;;;18.46;52.48;98472.34;5073007;28;20490;-65
2021/05/23 03:20:18;;;;;;;0.32;0.20;;;;;;;18.54;52.38;98452.22;5054434;28;20025;-64
2021/05/23 03:22:49;;;;;;;0.20;0.20;;;;;;;18.62;52.32;98463.81;5054534;28;20032;-63
2021/05/23 03:25:15;;;;;;;0.98;0.98;;;;;;;18.66;52.21;98464.88;5072780;28;20033;-65
2021/05/23 03:27:42;;;;;;;0.38;0.38;;;;;;;18.64;52.64;98467.97;5037991;28;20513;-65
2021/05/23 03:30:10;;;;;;;0.60;0.60;;;;;;;18.61;52.80;98484.41;5072462;28;20029;-66
2021/05/23 03:32:37;;;;;;;0.57;0.20;;;;;;;18.53;53.13;98508.13;5072930;28;20029;-65
2021/05/23 03:35:05;;;;;;;0.10;0.10;;;;;;;18.43;53.63;98528.50;5072785;28;20043;-64
2021/05/23 03:37:31;;;;;;;0.28;0.28;;;;;;;18.29;53.68;98513.69;5072967;28;20032;-66
2021/05/23 03:39:56;;;;;;;0.40;0.40;;;;;;;18.10;54.25;98474.69;5072466;28;20035;-65
2021/05/23 03:42:22;;;;;;;0.10;0.10;;;;;;;18.05;54.43;98536.69;5054767;28;20402;-65
2021/05/23 03:44:48;;;;;;;0.20;0.20;;;;;;;18.05;54.42;98511.69;5072798;28;20074;-65
2021/05/23 03:47:14;;;;;;;0.28;0.28;;;;;;;18.09;54.46;98500.78;5072735;28;20033;-64
2021/05/23 03:49:39;;;;;;;0.30;0.30;;;;;;;18.10;54.53;98469.13;5072716;28;20382;-64
2021/05/23 03:52:09;;;;;;;0.10;0.10;;;;;;;18.12;54.45;98477.97;5072500;28;20060;-68
2021/05/23 03:54:36;;;;;;;0.35;0.35;;;;;;;18.11;54.47;98467.97;5072534;28;20032;-64
2021/05/23 03:57:03;;;;;;;0.45;0.35;;;;;;;18.12;54.57;98480.75;5076060;28;20398;-64
2021/05/23 03:59:29;;;;;;;0.30;0.30;;;;;;;18.10;54.63;98539.41;5076253;28;20479;-65
2021/05/23 04:01:54;;;;;;;1.20;0.40;;;;;;;18.08;54.64;98538.03;5076261;28;20120;-67
2021/05/23 04:04:21;;;;;;;0.68;0.68;;;;;;;17.98;54.82;98523.09;5076013;28;20028;-66
2021/05/23 04:06:49;;;;;;;0.17;0.17;;;;;;;17.93;55.09;98498.16;5075945;28;20153;-64
2021/05/23 04:09:16;;;;;;;0.20;0.20;;;;;;;17.90;55.09;98520.13;5078746;28;20043;-64
2021/05/23 04:11:44;;;;;;;0.10;0.10;;;;;;;17.92;55.07;98540.94;5075622;28;20070;-64
2021/05/23 04:14:10;;;;;;;0.43;0.43;;;;;;;17.96;55.09;98536.47;5093271;28;20043;-64
2021/05/23 04:16:36;;;;;;;0.10;0.10;;;;;;;17.98;54.94;98513.97;5092852;28;20189;-65
2021/05/23 04:19:02;;;;;;;0.30;0.20;;;;;;;18.03;54.86;98514.75;5075409;28;20122;-65
2021/05/23 04:21:29;;;;;;;0.40;0.40;;;;;;;18.12;54.79;98525.22;5092994;28;20401;-66
2021/05/23 04:23:55;;;;;;;0.35;0.35;;;;;;;18.14;54.81;98537.69;5075126;28;20071;-65
2021/05/23 04:26:21;;;;;;;0.47;0.35;;;;;;;18.13;54.71;98536.03;5093359;28;20035;-66
2021/05/23 04:28:47;;;;;;;0.55;0.32;;;;;;;18.04;54.84;98552.50;5093622;28;20036;-64
2021/05/23 04:31:12;;;;;;;0.38;0.38;;;;;;;18.03;54.77;98561.97;5093027;28;20037;-66
2021/05/23 04:33:38;;;;;;;0.50;0.38;;;;;;;18.10;54.69;98536.63;5075257;28;20031;-67
2021/05/23 04:36:04;;;;;;;0.50;0.50;;;;;;;18.25;54.20;98520.94;5075638;28;20042;-67
2021/05/23 04:38:30;;;;;;;0.30;0.30;;;;;;;18.34;54.00;98542.25;5092682;28;20111;-66
2021/05/23 04:40:56;;;;;;;0.10;0.10;;;;;;;18.39;53.85;98533.03;5075210;28;20471;-68
2021/05/23 04:43:22;;;;;;;0.52;0.35;;;;;;;18.42;53.91;98531.59;5083398;28;20442;-68
2021/05/23 04:45:47;;;;;;;1.17;0.50;;;;;;;18.37;53.89;98518.56;5072597;28;20039;-68
2021/05/23 04:48:13;;;;;;;0.52;0.50;;;;;;;18.27;54.13;98518.69;5072430;28;20107;-65
2021/05/23 04:50:39;;;;;;;0.50;0.50;;;;;;;18.24;54.12;98508.16;5072688;28;20036;-68
2021/05/23 04:53:05;;;;;;;0.20;0.17;;;;;;;18.24;54.09;98517.34;5070371;28;20025;-67
2021/05/23 04:55:33;;;;;;;0.17;0.17;;;;;;;18.28;53.85;98514.78;5052299;28;20482;-68
2021/05/23 04:57:58;;;;;;;0.20;0.20;;;;;;;18.30;53.91;98505.03;5051744;28;20413;-66
2021/05/23 05:00:24;;;;;;;0.20;0.20;;;;;;;18.34;54.08;98535.84;5068641;28;20028;-67
2021/05/23 05:02:50;;;;;;;0.20;0.20;;;;;;;18.35;54.05;98530.00;5070725;28;20044;-64
2021/05/23 05:05:16;;;;;;;0.30;0.30;;;;;;;18.28;54.43;98520.34;5070515;28;20036;-68
2021/05/23 05:07:43;;;;;;;0.10;0.10;;;;;;;18.26;54.35;98547.63;5070025;28;20409;-69
2021/05/23 05:10:10;;;;;;;0.40;0.40;;;;;;;18.27;54.42;98558.44;5071059;28;20025;-68
2021/05/23 05:12:36;;;;;;;0.30;0.30;;;;;;;18.33;54.37;98528.63;5070166;28;20029;-69
2021/05/23 05:15:01;;;;;;;0.50;0.50;;;;;;;18.38;54.15;98531.34;5071487;28;20039;-64
2021/05/23 05:17:28;;;;;;;0.30;0.30;;;;;;;18.50;53.75;98505.94;5072886;28;20028;-70
2021/05/23 05:19:54;;;;;;;0.30;0.30;;;;;;;18.67;53.58;98478.50;5070609;28;20039;-68
2021/05/23 05:22:19;;;;;;;0.57;0.20;;;;;;;18.81;53.26;98506.41;5071035;28;20028;-68
2021/05/23 05:24:45;;;;;;;0.20;0.20;;;;;;;18.95;53.22;98502.94;5052650;28;20028;-69
2021/05/23 05:27:11;;;;;;;0.22;0.22;;;;;;;18.85;53.31;98535.28;5052550;28;20028;-71
2021/05/23 05:29:37;;;;;;;0.47;0.47;;;;;;;18.78;53.75;98520.09;5069719;28;20035;-73
2021/05/23 05:32:03;;;;;;;0.85;0.85;;;;;;;18.79;53.72;98535.66;5070704;28;20119;-73
2021/05/23 05:34:28;;;;;;;0.35;0.35;;;;;;;18.78;53.74;98522.88;5070491;28;20036;-71
2021/05/23 05:36:54;;;;;;;0.22;0.22;;;;;;;18.78;53.96;98531.22;5070323;28;20471;-71
2021/05/23 05:39:20;;;;;;;0.77;0.77;;;;;;;18.72;54.21;98553.50;5071241;28;20039;-71
2021/05/23 05:41:46;;;;;;;0.32;0.32;;;;;;;18.66;54.32;98579.72;5071563;28;20494;-73
2021/05/23 05:44:12;;;;;;;0.25;0.25;;;;;;;18.60;54.45;98561.44;5072141;28;20036;-72
2021/05/23 05:46:37;;;;;;;0.52;0.52;;;;;;;18.64;54.45;98564.44;5070920;28;20106;-75
2021/05/23 05:49:03;;;;;;;0.82;0.82;;;;;;;18.61;54.47;98540.00;5074829;28;20020;-75
2021/05/23 05:51:29;;;;;;;3.22;0.50;;;;;;;18.54;54.75;98502.28;5071884;28;20037;-74
2021/05/23 05:53:55;;;;;;;0.40;0.40;;;;;;;18.51;54.60;98504.81;5070592;28;20032;-73
2021/05/23 05:56:21;;;;;;;0.20;0.20;;;;;;;18.56;54.62;98508.38;5070450;28;20106;-72
2021/05/23 05:58:47;;;;;;;0.10;0.10;;;;;;;18.59;54.67;98556.19;5055188;28;20486;-71
2021/05/23 06:01:13;;;;;;;0.30;0.30;;;;;;;18.62;54.60;98583.38;5070757;28;20040;-73
2021/05/23 06:03:38;;;;;;;0.45;0.45;;;;;;;18.56;54.57;98552.88;5068743;28;20119;-69
2021/05/23 06:06:04;;;;;;;1.00;0.43;;;;;;;18.47;54.86;98553.78;5073311;28;20047;-73
2021/05/23 06:08:30;;;;;;;0.10;0.10;;;;;;;18.39;55.21;98541.38;5068323;28;20575;-72
2021/05/23 06:10:56;;;;;;;0.38;0.38;;;;;;;18.29;55.40;98547.84;5071139;28;20036;-71
2021/05/23 06:13:22;;;;;;;0.40;0.40;;;;;;;18.18;55.75;98549.91;5053689;28;20078;-69
2021/05/23 06:15:47;;;;;;;0.55;0.55;;;;;;;18.01;56.00;98532.81;5071587;28;20490;-70
2021/05/23 06:18:13;;;;;;;0.50;0.50;;;;;;;17.98;56.16;98538.97;5067082;28;20037;-71
2021/05/23 06:20:39;;;;;;;0.22;0.22;;;;;;;18.02;56.07;98537.22;5070310;28;20043;-70
2021/05/23 06:23:05;;;;;;;0.45;0.40;;;;;;;18.04;56.07;98560.00;5068036;28;20509;-72
2021/05/23 06:25:30;;;;;;;0.13;0.13;;;;;;;18.04;56.06;98571.13;5070623;28;20502;-70
2021/05/23 06:27:56;;;;;;;0.10;0.10;;;;;;;17.98;56.19;98589.78;5052668;28;20039;-70
2021/05/23 06:30:23;;;;;;;0.32;0.32;;;;;;;17.93;56.18;98538.97;5052033;28;20040;-70
2021/05/23 06:32:48;;;;;;;0.25;0.25;;;;;;;17.94;56.28;98546.19;5072203;28;20499;-72
2021/05/23 06:35:17;;;;;;;0.30;0.30;;;;;;;17.94;56.17;98551.75;5071133;28;20028;-71
2021/05/23 06:37:44;;;;;;;0.35;0.35;;;;;;;17.94;56.12;98544.25;5070374;28;20045;-70
2021/05/23 06:40:11;;;;;;;0.30;0.30;;;;;;;17.92;56.42;98534.53;5073011;28;20085;-70
2021/05/23 06:42:36;;;;;;;0.30;0.30;;;;;;;17.91;56.34;98511.50;5064974;28;20040;-63
2021/05/23 06:45:03;;;;;;;0.40;0.40;;;;;;;17.85;56.36;98534.84;5087746;28;20078;-62
2021/05/23 06:47:29;;;;;;;0.43;0.30;;;;;;;17.86;56.49;98545.66;5091980;28;20066;-62
2021/05/23 06:49:54;;;;;;;0.35;0.35;;;;;;;17.91;56.23;98535.69;5096141;28;20036;-62
2021/05/23 06:52:20;;;;;;;0.35;0.35;;;;;;;17.96;56.15;98518.97;5096991;28;20559;-63
2021/05/23 06:54:46;;;;;;;3.20;0.30;;;;;;;18.05;55.94;98514.44;5094975;28;20081;-59
2021/05/23 06:57:12;;;;;;;0.10;0.10;;;;;;;18.16;55.65;98531.84;5072870;28;20039;-60
2021/05/23 06:59:39;;;;;;;0.25;0.25;;;;;;;18.32;55.52;98549.22;5082390;28;20024;-61
2021/05/23 07:02:04;;;;;;;0.13;0.13;;;;;;;18.55;54.90;98567.03;5070473;28;20497;-62
2021/05/23 07:04:30;;;;;;;0.50;0.50;;;;;;;18.82;54.43;98574.81;5070126;28;20040;-64
2021/05/23 07:06:56;;;;;;;0.20;0.20;;;;;;;19.09;53.76;98567.88;5069796;28;20170;-62
2021/05/23 07:09:22;;;;;;;0.60;0.60;;;;;;;19.33;53.26;98555.88;5067649;28;20044;-64
2021/05/23 07:11:48;;;;;;;0.93;0.90;;;;;;;19.56;52.96;98571.69;5067846;28;20039;-63
2021/05/23 07:14:13;;;;;;;0.43;0.43;;;;;;;19.72;52.95;98563.94;5068466;28;20116;-64
2021/05/23 07:16:39;;;;;;;0.30;0.30;;;;;;;19.87;52.66;98568.50;5066152;28;20036;-64
2021/05/23 07:19:05;;;;;;;0.35;0.35;;;;;;;19.97;52.37;98575.06;5068590;28;20029;-63
2021/05/23 07:21:31;;;;;;;0.30;0.30;;;;;;;20.08;52.47;98563.44;5069606;28;20498;-63
2021/05/23 07:23:57;;;;;;;0.75;0.60;;;;;;;20.26;52.10;98572.91;5070771;28;20036;-64
2021/05/23 07:26:23;;;;;;;0.45;0.45;;;;;;;20.52;51.64;98574.41;5069734;28;20029;-64
2021/05/23 07:28:49;;;;;;;0.20;0.20;;;;;;;20.68;51.49;98575.81;5069168;28;20060;-63
2021/05/23 07:31:14;;;;;;;0.30;0.30;;;;;;;20.69;51.58;98557.94;5069898;28;20115;-63
2021/05/23 07:33:40;;;;;;;0.20;0.20;;;;;;;20.82;51.41;98534.81;5078614;28;20525;-63
2021/05/23 07:36:07;;;;;;;0.20;0.20;;;;;;;20.98;51.16;98524.16;5080022;28;20044;-64
2021/05/23 07:38:34;;;;;;;0.28;0.28;;;;;;;21.25;50.61;98530.03;5069619;28;20123;-63
2021/05/23 07:41:01;;;;;;;0.50;0.50;;;;;;;21.51;50.07;98539.53;5077689;28;20040;-66
2021/05/23 07:43:26;;;;;;;0.10;0.10;;;;;;;21.83;49.51;98542.41;5090286;28;20059;-63
2021/05/23 07:45:52;;;;;;;0.63;0.63;;;;;;;22.17;49.08;98536.28;5089701;28;20032;-64
2021/05/23 07:48:19;;;;;;;0.10;0.10;;;;;;;22.51;48.31;98542.41;5090168;28;20039;-63
2021/05/23 07:50:47;;;;;;;1.38;0.20;;;;;;;22.72;48.40;98537.13;5072363;28;20036;-64
2021/05/23 07:53:13;;;;;;;0.20;0.20;;;;;;;22.92;48.07;98538.50;5089993;28;20032;-64
2021/05/23 07:55:39;;;;;;;0.50;0.50;;;;;;;23.19;47.87;98533.84;5090140;28;20124;-65
2021/05/23 07:58:04;;;;;;;0.20;0.20;;;;;;;23.39;47.55;98530.41;5066373;28;20111;-64
2021/05/23 08:00:30;;;;;;;0.17;0.17;;;;;;;23.43;47.44;98525.00;5048152;28;20032;-64
2021/05/23 08:02:56;;;;;;;0.10;0.10;;;;;;;23.41;47.50;98524.53;5069080;28;20044;-63
2021/05/23 08:05:23;;;;;;;0.20;0.20;;;;;;;23.42;47.73;98526.16;5051910;28;20041;-64
2021/05/23 08:07:48;;;;;;;0.10;0.10;;;;;;;23.47;47.99;98513.94;5069859;28;20044;-63
2021/05/23 08:10:15;;;;;;;0.20;0.20;;;;;;;23.55;47.55;98504.75;5066459;28;20086;-64
2021/05/23 08:12:49;;;;;;;0.10;0.10;;;;;;;23.52;47.61;98511.00;5067363;28;20036;-67
2021/05/23 08:15:17;;;;;;;;;;;;;;;23.55;47.60;98511.16;5067302;28;20053;-63
2021/05/23 08:17:57;;;;;;;0.20;0.20;;;;;;;23.55;47.75;98501.94;5081450;28;20289;-63
2021/05/23 08:20:29;;;;;;;0.00;0.00;;;;;;;23.29;48.25;98487.91;5066277;28;20413;-64
2021/05/23 08:22:59;;;;;;;0.15;0.15;;;;;;;23.16;48.36;98501.72;5050673;28;20090;-64
2021/05/23 08:25:25;;;;;;;0.10;0.10;;;;;;;23.09;48.47;98507.75;5074838;28;20120;-63
2021/05/23 08:27:51;;;;;;;0.32;0.32;;;;;;;23.08;48.50;98513.69;5088165;28;20028;-63
2021/05/23 08:30:17;;;;;;;0.15;0.15;;;;;;;23.05;48.44;98517.97;5069660;28;20048;-64
2021/05/23 08:32:43;;;;;;;0.10;0.10;;;;;;;23.12;48.24;98523.13;5068401;28;20399;-64
2021/05/23 08:35:11;;;;;;;0.10;0.10;;;;;;;23.07;48.42;98524.06;5079204;28;20089;-61
2021/05/23 08:37:37;;;;;;;0.10;0.10;;;;;;;23.02;48.63;98524.22;5081039;28;20036;-63
2021/05/23 08:40:05;;;;;;;0.20;0.20;;;;;;;22.85;48.48;98524.16;5049461;28;20032;-63
2021/05/23 08:42:32;;;;;;;0.38;0.38;;;;;;;22.90;48.59;98524.00;5082724;28;20566;-63
2021/05/23 08:44:58;;;;;;;0.10;0.10;;;;;;;22.97;48.24;98521.56;5091545;28;20028;-62
2021/05/23 08:47:25;;;;;;;0.38;0.38;;;;;;;22.93;48.42;98531.75;5091611;28;20028;-61
2021/05/23 08:49:52;;;;;;;0.20;0.20;;;;;;;22.89;48.34;98530.75;5067772;28;20032;-62
2021/05/23 08:52:19;;;;;;;0.30;0.30;;;;;;;22.80;48.79;98538.28;5071245;28;20387;-62
2021/05/23 08:54:48;;;;;;;0.13;0.13;;;;;;;22.92;48.12;98535.69;5071736;28;20115;-61
2021/05/23 08:57:17;;;;;;;0.30;0.30;;;;;;;22.90;48.26;98538.00;5071341;28;20032;-61
2021/05/23 08:59:43;;;;;;;0.15;0.15;;;;;;;22.75;48.61;98539.28;5070959;28;20528;-62
2021/05/23 09:02:09;;;;;;;0.88;0.47;;;;;;;22.50;49.25;98526.81;5071207;28;20071;-61
2021/05/23 09:04:48;;;;;;;0.63;0.57;;;;;;;22.26;49.39;98530.75;5052180;28;20035;-64
2021/05/23 09:07:14;;;;;;;0.10;0.10;;;;;;;22.17;49.79;98546.63;5088094;28;20051;-61
2021/05/23 09:09:50;;;;;;;0.43;0.38;;;;;;;22.10;49.65;98527.50;5080628;28;20513;-61
2021/05/23 09:12:19;;;;;;;0.20;0.20;;;;;;;22.10;49.52;98533.09;5084330;28;20401;-63
2021/05/23 09:14:50;;;;;;;0.22;0.22;;;;;;;22.28;49.00;98536.84;5070796;28;20039;-62
2021/05/23 09:17:26;;;;;;;0.20;0.20;;;;;;;22.46;48.61;98518.22;5076685;28;20031;-62
2021/05/23 09:19:54;;;;;;;0.10;0.10;;;;;;;22.53;48.26;98517.75;5090969;28;20036;-61
2021/05/23 09:22:23;;;;;;;1.25;0.30;;;;;;;22.60;47.88;98509.75;5072417;28;20032;-62
2021/05/23 09:25:01;;;;;;;0.30;0.30;;;;;;;22.66;47.89;98518.78;5070001;28;20036;-62
2021/05/23 09:27:33;;;;;;;0.20;0.20;;;;;;;22.72;48.05;98525.91;5068063;28;20052;-66
2021/05/23 09:30:14;;;;;;;0.20;0.20;;;;;;;22.80;47.93;98530.72;5070656;28;20062;-63
2021/05/23 09:32:44;;;;;;;0.15;0.15;;;;;;;22.89;47.70;98526.00;5051827;28;20056;-62
2021/05/23 09:35:11;;;;;;;0.20;0.20;;;;;;;23.01;47.41;98533.78;5069732;28;20032;-62
2021/05/23 09:37:38;;;;;;;0.30;0.30;;;;;;;22.95;47.57;98537.84;5071353;28;20105;-62
2021/05/23 09:40:25;;;;;;;0.13;0.13;;;;;;;22.75;48.09;98542.88;5069033;28;20032;-61
2021/05/23 09:42:55;;;;;;;0.65;0.35;;;;;;;22.54;48.06;98544.56;5068998;28;20036;-61
2021/05/23 09:45:23;;;;;;;0.10;0.10;;;;;;;22.40;48.54;98553.88;5048864;28;20400;-63
2021/05/23 09:47:58;;;;;;;0.73;0.30;;;;;;;22.32;48.48;98554.66;5068688;28;20031;-63
2021/05/23 09:50:41;;;;;;;0.20;0.20;;;;;;;22.44;48.25;98548.50;5067659;28;20028;-63
2021/05/23 09:53:33;;;;;;;0.13;0.13;;;;;;;22.57;47.91;98538.38;5035063;28;20406;-61
2021/05/23 09:56:02;;;;;;;0.17;0.17;;;;;;;22.63;47.82;98541.81;5065601;28;20028;-61
2021/05/23 09:58:43;;;;;;;0.40;0.40;;;;;;;22.69;47.29;98546.97;5070642;28;20028;-64
2021/05/23 10:01:23;;;;;;;0.10;0.10;;;;;;;22.61;47.54;98542.16;5051937;28;20183;-64
2021/05/23 10:03:49;;;;;;;0.35;0.35;;;;;;;22.56;47.60;98543.13;5067704;28;20028;-65
2021/05/23 10:06:28;;;;;;;0.55;0.20;;;;;;;22.52;47.58;98532.91;5071844;28;20032;-64
2021/05/23 10:08:55;;;;;;;0.10;0.10;;;;;;;22.57;47.69;98538.38;5051708;28;20087;-65
2021/05/23 10:11:21;;;;;;;0.80;0.55;;;;;;;22.60;47.48;98537.72;5034198;28;20044;-64
2021/05/23 10:13:47;;;;;;;0.30;0.30;;;;;;;22.63;47.43;98528.69;5035088;28;20032;-64
2021/05/23 10:16:13;;;;;;;0.63;0.63;;;;;;;22.64;47.34;98535.09;5053318;28;20051;-65
2021/05/23 10:18:40;;;;;;;0.32;0.32;;;;;;;22.65;47.24;98528.34;5053364;28;20486;-64
2021/05/23 10:21:06;;;;;;;1.25;0.50;;;;;;;22.72;47.03;98517.53;5035404;28;20406;-64
2021/05/23 10:23:53;;;;;;;0.10;0.10;;;;;;;22.88;46.88;98515.13;5035252;28;20048;-65
2021/05/23 10:26:25;;;;;;;0.75;0.40;;;;;;;22.92;46.68;98522.53;5053104;28;20102;-64
2021/05/23 10:28:52;;;;;;;0.20;0.20;;;;;;;23.07;46.00;98526.88;5053178;28;20091;-64
2021/05/23 10:31:36;;;;;;;3.30;0.47;;;;;;;23.24;45.85;98522.50;5053137;28;20491;-64
2021/05/23 10:34:02;;;;;;;0.10;0.10;;;;;;;23.26;45.90;98520.19;5053014;28;20128;-66
2021/05/23 10:36:31;;;;;;;0.10;0.10;;;;;;;23.29;45.55;98521.50;5052947;28;20121;-65
2021/05/23 10:39:00;;;;;;;0.30;0.30;;;;;;;23.27;45.64;98521.84;5052877;28;20546;-65
2021/05/23 10:41:26;;;;;;;0.35;0.35;;;;;;;23.27;45.64;98517.06;5052746;28;20032;-66
2021/05/23 10:44:05;;;;;;;0.10;0.10;;;;;;;23.26;46.03;98523.81;5052560;28;20035;-66
2021/05/23 10:46:42;;;;;;;0.10;0.10;;;;;;;23.17;45.99;98527.75;5052822;28;20082;-65
2021/05/23 10:49:09;;;;;;;0.98;0.43;;;;;;;23.18;45.82;98521.81;5053109;28;20116;-65
2021/05/23 10:51:34;;;;;;;1.08;0.45;;;;;;;23.21;45.69;98528.75;5053058;28;20041;-65
2021/05/23 10:54:00;;;;;;;0.08;0.08;;;;;;;23.30;45.59;98549.19;5052896;28;20032;-64
2021/05/23 10:56:29;;;;;;;0.15;0.15;;;;;;;23.38;45.51;98534.41;5052826;28;20037;-66
2021/05/23 10:59:01;;;;;;;0.30;0.30;;;;;;;23.48;45.12;98535.22;5052735;28;20094;-66
2021/05/23 11:01:46;;;;;;;0.32;0.32;;;;;;;23.44;45.28;98532.28;5052943;28;20081;-65
2021/05/23 11:04:15;;;;;;;1.00;0.65;;;;;;;23.39;45.41;98541.63;5033967;28;20131;-64
2021/05/23 11:06:43;;;;;;;0.13;0.13;;;;;;;23.27;45.48;98535.84;5054039;28;20037;-65
2021/05/23 11:09:20;;;;;;;0.10;0.10;;;;;;;23.08;45.61;98530.50;5072505;28;20032;-64
2021/05/23 11:11:47;;;;;;;0.55;0.55;;;;;;;22.83;46.34;98527.25;5072468;28;20043;-64
2021/05/23 11:14:24;;;;;;;0.10;0.10;;;;;;;22.68;46.63;98528.53;5075901;28;20100;-64
2021/05/23 11:16:53;;;;;;;0.30;0.30;;;;;;;22.61;46.24;98535.75;5084590;28;20033;-64
2021/05/23 11:19:20;;;;;;;0.30;0.28;;;;;;;22.61;46.40;98542.16;5077406;28;20426;-64
2021/05/23 11:21:51;;;;;;;0.20;0.20;;;;;;;22.69;46.15;98538.59;5062682;28;20028;-64
2021/05/23 11:24:18;;;;;;;0.10;0.10;;;;;;;22.73;45.70;98539.59;5075748;28;20044;-64
2021/05/23 11:26:44;;;;;;;0.10;0.10;;;;;;;22.80;45.93;98535.50;5073295;28;20040;-65
2021/05/23 11:29:10;;;;;;;0.30;0.30;;;;;;;22.89;45.58;98544.75;5054787;28;20020;-66
2021/05/23 11:31:45;;;;;;;0.30;0.30;;;;;;;22.85;45.76;98538.13;5054358;28;20028;-65
2021/05/23 11:34:13;;;;;;;0.20;0.20;;;;;;;22.76;45.58;98543.69;5071976;28;20041;-65
2021/05/23 11:36:39;;;;;;;0.10;0.10;;;;;;;22.67;45.98;98554.88;5054056;28;20040;-65
2021/05/23 11:39:14;;;;;;;0.20;0.20;;;;;;;22.60;45.85;98536.88;5072139;28;20221;-65